Kezdőlap
METAR-TAF:

METAR-TAF

Repülőterek :

Oral, Kazahsztán

földrajzi szélesség: 51-15N, földrajzi hosszúság: 051-17E, magasság: 36 m

Jelenlegi meteorológiai megfigyelések

A jelentés 27 perccel ezelõtt készült, 13:30 UTC
Dél-délkeleti szél 2 kt
Hőmérséklet 9°C
Páratartalom 46%
Légköri nyomás 1021 hPa
Látótávolság 10 km, vagy több
felhőtlen 1500 m magasságban, és nincs gomolyfelhõ

METAR: UARR 311330Z 16001MPS CAVOK 09/M02 Q1021 R22/CLRD70 TEMPO 17005MPS RMK QFE762/1016

Idő: 18:57 (13:57 UTC)

Előrejelzés

A jelentés 2 órával és 57 perccel ezelõtt készült, 11:00 UTC
Az előrejelzés 31-én 12 óra UTC és 31-én 21 óra UTC között érvényes
Délkeleti szél 10 kt
Látótávolság 10 km, vagy több
felhőtlen 1500 m magasságban, és nincs gomolyfelhõ

TAF: UARR 311100Z 3112/3121 14005MPS CAVOK

Meteorológiai megfigyelések és előrejelzések több, mint 4000 repülőtéren (METAR és TAF jelentéseket).

A térképen piros és sárga pontok jelzik az elérhető meteorológiai állomásokat.

Mozgassa az egeret a pont fölött, hogy megjelenjen az állomás neve.

Azután kattintson az időjárási megfigyelések és előrejelzések megtekintéséhez.

A térkép megváltoztatása: kattintson a fekete keresztel jelölt zöld gombra ráközelítéshez, a vonallal jelölt zöld gombra távolításhoz, vagy a zöld nyilakra a szomszédos térképek eléréséhez.


METAR-TAF: